sensor_id;sensor_type;location;lat;lon;timestamp;P1;durP1;ratioP1;P2;durP2;ratioP2
46765;SDS011;32527;51.986;5.842;2024-03-06T00:01:56;24.65;;;13.93;;
46765;SDS011;32527;51.986;5.842;2024-03-06T00:04:22;24.70;;;11.95;;
46765;SDS011;32527;51.986;5.842;2024-03-06T00:06:49;26.08;;;14.38;;
46765;SDS011;32527;51.986;5.842;2024-03-06T00:09:17;25.65;;;13.98;;
46765;SDS011;32527;51.986;5.842;2024-03-06T00:11:44;20.35;;;11.60;;
46765;SDS011;32527;51.986;5.842;2024-03-06T00:14:11;19.08;;;12.73;;
46765;SDS011;32527;51.986;5.842;2024-03-06T00:16:38;21.83;;;12.63;;
46765;SDS011;32527;51.986;5.842;2024-03-06T00:19:04;25.85;;;13.40;;
46765;SDS011;32527;51.986;5.842;2024-03-06T00:21:30;22.60;;;12.70;;
46765;SDS011;32527;51.986;5.842;2024-03-06T00:23:56;29.50;;;14.38;;
46765;SDS011;32527;51.986;5.842;2024-03-06T00:26:22;19.92;;;10.00;;
46765;SDS011;32527;51.986;5.842;2024-03-06T00:28:48;21.52;;;10.63;;
46765;SDS011;32527;51.986;5.842;2024-03-06T00:31:15;23.08;;;13.57;;
46765;SDS011;32527;51.986;5.842;2024-03-06T00:33:41;24.88;;;13.02;;
46765;SDS011;32527;51.986;5.842;2024-03-06T00:36:07;23.20;;;12.30;;
46765;SDS011;32527;51.986;5.842;2024-03-06T00:38:33;23.42;;;13.10;;
46765;SDS011;32527;51.986;5.842;2024-03-06T00:40:59;23.63;;;11.27;;
46765;SDS011;32527;51.986;5.842;2024-03-06T00:43:25;23.95;;;13.02;;
46765;SDS011;32527;51.986;5.842;2024-03-06T00:45:51;23.70;;;11.18;;
46765;SDS011;32527;51.986;5.842;2024-03-06T00:48:17;20.90;;;10.18;;
46765;SDS011;32527;51.986;5.842;2024-03-06T00:50:45;30.95;;;12.70;;
46765;SDS011;32527;51.986;5.842;2024-03-06T00:53:11;24.05;;;12.25;;
46765;SDS011;32527;51.986;5.842;2024-03-06T00:55:37;22.42;;;13.45;;
46765;SDS011;32527;51.986;5.842;2024-03-06T00:58:03;19.27;;;11.32;;
46765;SDS011;32527;51.986;5.842;2024-03-06T01:00:31;22.88;;;12.70;;
46765;SDS011;32527;51.986;5.842;2024-03-06T01:02:57;21.77;;;13.10;;
46765;SDS011;32527;51.986;5.842;2024-03-06T01:05:23;17.65;;;11.10;;
46765;SDS011;32527;51.986;5.842;2024-03-06T01:07:50;20.48;;;11.35;;
46765;SDS011;32527;51.986;5.842;2024-03-06T01:10:16;21.25;;;12.57;;
46765;SDS011;32527;51.986;5.842;2024-03-06T01:12:43;20.05;;;11.75;;
46765;SDS011;32527;51.986;5.842;2024-03-06T01:15:11;35.65;;;13.43;;
46765;SDS011;32527;51.986;5.842;2024-03-06T01:17:37;24.52;;;14.82;;
46765;SDS011;32527;51.986;5.842;2024-03-06T01:20:03;26.38;;;13.88;;
46765;SDS011;32527;51.986;5.842;2024-03-06T01:22:32;20.38;;;11.05;;
46765;SDS011;32527;51.986;5.842;2024-03-06T01:25:00;20.35;;;12.50;;
46765;SDS011;32527;51.986;5.842;2024-03-06T01:27:27;20.08;;;12.50;;
46765;SDS011;32527;51.986;5.842;2024-03-06T01:29:53;23.02;;;13.25;;
46765;SDS011;32527;51.986;5.842;2024-03-06T01:32:19;17.92;;;10.93;;
46765;SDS011;32527;51.986;5.842;2024-03-06T01:34:46;20.20;;;11.52;;
46765;SDS011;32527;51.986;5.842;2024-03-06T01:37:12;19.50;;;11.23;;
46765;SDS011;32527;51.986;5.842;2024-03-06T01:39:38;22.63;;;12.07;;
46765;SDS011;32527;51.986;5.842;2024-03-06T01:42:05;24.27;;;14.90;;
46765;SDS011;32527;51.986;5.842;2024-03-06T01:44:32;19.33;;;12.13;;
46765;SDS011;32527;51.986;5.842;2024-03-06T01:46:58;19.00;;;11.05;;
46765;SDS011;32527;51.986;5.842;2024-03-06T01:49:24;21.00;;;12.18;;
46765;SDS011;32527;51.986;5.842;2024-03-06T01:51:53;23.13;;;10.63;;
46765;SDS011;32527;51.986;5.842;2024-03-06T01:54:19;21.30;;;12.77;;
46765;SDS011;32527;51.986;5.842;2024-03-06T01:56:46;20.88;;;12.77;;
46765;SDS011;32527;51.986;5.842;2024-03-06T01:59:13;25.65;;;12.95;;
46765;SDS011;32527;51.986;5.842;2024-03-06T02:01:39;23.98;;;11.43;;
46765;SDS011;32527;51.986;5.842;2024-03-06T02:04:06;18.48;;;11.30;;
46765;SDS011;32527;51.986;5.842;2024-03-06T02:06:34;21.77;;;11.50;;
46765;SDS011;32527;51.986;5.842;2024-03-06T02:09:00;18.40;;;11.80;;
46765;SDS011;32527;51.986;5.842;2024-03-06T02:11:28;17.88;;;9.38;;
46765;SDS011;32527;51.986;5.842;2024-03-06T02:13:54;22.70;;;12.48;;
46765;SDS011;32527;51.986;5.842;2024-03-06T02:16:20;17.10;;;10.93;;
46765;SDS011;32527;51.986;5.842;2024-03-06T02:18:56;26.75;;;15.10;;
46765;SDS011;32527;51.986;5.842;2024-03-06T02:21:23;19.58;;;12.65;;
46765;SDS011;32527;51.986;5.842;2024-03-06T02:23:50;23.83;;;12.45;;
46765;SDS011;32527;51.986;5.842;2024-03-06T02:26:20;22.50;;;12.77;;
46765;SDS011;32527;51.986;5.842;2024-03-06T02:28:50;18.35;;;10.70;;
46765;SDS011;32527;51.986;5.842;2024-03-06T02:31:17;22.02;;;11.75;;
46765;SDS011;32527;51.986;5.842;2024-03-06T02:33:43;17.20;;;10.60;;
46765;SDS011;32527;51.986;5.842;2024-03-06T02:36:13;21.33;;;10.98;;
46765;SDS011;32527;51.986;5.842;2024-03-06T02:38:39;17.55;;;10.27;;
46765;SDS011;32527;51.986;5.842;2024-03-06T02:41:05;27.67;;;12.32;;
46765;SDS011;32527;51.986;5.842;2024-03-06T02:43:35;19.40;;;11.20;;
46765;SDS011;32527;51.986;5.842;2024-03-06T02:46:01;21.95;;;12.10;;
46765;SDS011;32527;51.986;5.842;2024-03-06T02:48:27;17.63;;;10.90;;
46765;SDS011;32527;51.986;5.842;2024-03-06T02:50:53;20.45;;;10.05;;
46765;SDS011;32527;51.986;5.842;2024-03-06T02:53:19;20.15;;;12.95;;
46765;SDS011;32527;51.986;5.842;2024-03-06T02:55:45;18.48;;;12.35;;
46765;SDS011;32527;51.986;5.842;2024-03-06T02:58:11;22.10;;;10.30;;
46765;SDS011;32527;51.986;5.842;2024-03-06T03:00:39;23.55;;;12.90;;
46765;SDS011;32527;51.986;5.842;2024-03-06T03:03:09;20.98;;;12.77;;
46765;SDS011;32527;51.986;5.842;2024-03-06T03:05:37;19.17;;;9.57;;
46765;SDS011;32527;51.986;5.842;2024-03-06T03:08:03;25.20;;;13.15;;
46765;SDS011;32527;51.986;5.842;2024-03-06T03:10:30;21.98;;;12.15;;
46765;SDS011;32527;51.986;5.842;2024-03-06T03:12:56;20.30;;;11.32;;
46765;SDS011;32527;51.986;5.842;2024-03-06T03:15:22;21.80;;;12.60;;
46765;SDS011;32527;51.986;5.842;2024-03-06T03:17:48;26.30;;;12.45;;
46765;SDS011;32527;51.986;5.842;2024-03-06T03:20:14;22.67;;;11.43;;
46765;SDS011;32527;51.986;5.842;2024-03-06T03:22:42;24.13;;;14.38;;
46765;SDS011;32527;51.986;5.842;2024-03-06T03:25:12;21.60;;;11.82;;
46765;SDS011;32527;51.986;5.842;2024-03-06T03:27:41;30.00;;;14.07;;
46765;SDS011;32527;51.986;5.842;2024-03-06T03:30:12;25.65;;;13.45;;
46765;SDS011;32527;51.986;5.842;2024-03-06T03:32:38;26.42;;;12.23;;
46765;SDS011;32527;51.986;5.842;2024-03-06T03:35:05;24.20;;;13.13;;
46765;SDS011;32527;51.986;5.842;2024-03-06T03:37:31;29.10;;;12.88;;
46765;SDS011;32527;51.986;5.842;2024-03-06T03:39:57;22.63;;;13.07;;
46765;SDS011;32527;51.986;5.842;2024-03-06T03:42:23;24.50;;;14.02;;
46765;SDS011;32527;51.986;5.842;2024-03-06T03:44:49;26.98;;;12.98;;
46765;SDS011;32527;51.986;5.842;2024-03-06T03:47:15;21.90;;;12.90;;
46765;SDS011;32527;51.986;5.842;2024-03-06T03:49:41;22.88;;;13.65;;
46765;SDS011;32527;51.986;5.842;2024-03-06T03:52:08;28.35;;;14.40;;
46765;SDS011;32527;51.986;5.842;2024-03-06T03:54:34;20.80;;;10.65;;
46765;SDS011;32527;51.986;5.842;2024-03-06T03:57:00;27.05;;;12.55;;
46765;SDS011;32527;51.986;5.842;2024-03-06T03:59:26;24.58;;;10.90;;
46765;SDS011;32527;51.986;5.842;2024-03-06T04:01:52;23.27;;;13.45;;
46765;SDS011;32527;51.986;5.842;2024-03-06T04:04:18;23.02;;;11.52;;
46765;SDS011;32527;51.986;5.842;2024-03-06T04:06:44;21.58;;;13.55;;
46765;SDS011;32527;51.986;5.842;2024-03-06T04:09:10;28.80;;;14.55;;
46765;SDS011;32527;51.986;5.842;2024-03-06T04:11:37;27.52;;;11.38;;
46765;SDS011;32527;51.986;5.842;2024-03-06T04:14:06;20.90;;;12.63;;
46765;SDS011;32527;51.986;5.842;2024-03-06T04:16:33;21.20;;;13.57;;
46765;SDS011;32527;51.986;5.842;2024-03-06T04:18:59;21.33;;;13.55;;
46765;SDS011;32527;51.986;5.842;2024-03-06T04:21:25;28.48;;;12.18;;
46765;SDS011;32527;51.986;5.842;2024-03-06T04:23:51;22.08;;;13.10;;
46765;SDS011;32527;51.986;5.842;2024-03-06T04:26:17;26.75;;;13.18;;
46765;SDS011;32527;51.986;5.842;2024-03-06T04:28:44;23.42;;;12.18;;
46765;SDS011;32527;51.986;5.842;2024-03-06T04:31:10;24.63;;;12.68;;
46765;SDS011;32527;51.986;5.842;2024-03-06T04:33:36;20.20;;;11.85;;
46765;SDS011;32527;51.986;5.842;2024-03-06T04:36:02;24.33;;;11.45;;
46765;SDS011;32527;51.986;5.842;2024-03-06T04:38:30;24.00;;;12.82;;
46765;SDS011;32527;51.986;5.842;2024-03-06T04:40:57;21.33;;;10.52;;
46765;SDS011;32527;51.986;5.842;2024-03-06T04:43:23;27.45;;;14.13;;
46765;SDS011;32527;51.986;5.842;2024-03-06T04:45:49;24.50;;;14.77;;
46765;SDS011;32527;51.986;5.842;2024-03-06T04:48:15;24.73;;;15.10;;
46765;SDS011;32527;51.986;5.842;2024-03-06T04:50:41;30.73;;;12.63;;
46765;SDS011;32527;51.986;5.842;2024-03-06T04:53:07;17.75;;;12.68;;
46765;SDS011;32527;51.986;5.842;2024-03-06T04:55:35;24.23;;;12.23;;
46765;SDS011;32527;51.986;5.842;2024-03-06T04:58:02;18.33;;;10.80;;
46765;SDS011;32527;51.986;5.842;2024-03-06T05:00:29;21.33;;;12.30;;
46765;SDS011;32527;51.986;5.842;2024-03-06T05:02:55;25.88;;;14.65;;
46765;SDS011;32527;51.986;5.842;2024-03-06T05:05:21;19.92;;;11.88;;
46765;SDS011;32527;51.986;5.842;2024-03-06T05:07:47;21.23;;;13.43;;
46765;SDS011;32527;51.986;5.842;2024-03-06T05:10:14;29.05;;;14.20;;
46765;SDS011;32527;51.986;5.842;2024-03-06T05:12:41;23.02;;;11.55;;
46765;SDS011;32527;51.986;5.842;2024-03-06T05:15:07;19.95;;;12.07;;
46765;SDS011;32527;51.986;5.842;2024-03-06T05:17:34;19.15;;;12.00;;
46765;SDS011;32527;51.986;5.842;2024-03-06T05:20:00;20.90;;;12.65;;
46765;SDS011;32527;51.986;5.842;2024-03-06T05:22:26;17.50;;;10.48;;
46765;SDS011;32527;51.986;5.842;2024-03-06T05:24:52;26.15;;;14.48;;
46765;SDS011;32527;51.986;5.842;2024-03-06T05:27:20;24.02;;;10.45;;
46765;SDS011;32527;51.986;5.842;2024-03-06T05:29:46;24.30;;;12.57;;
46765;SDS011;32527;51.986;5.842;2024-03-06T05:32:12;25.73;;;13.30;;
46765;SDS011;32527;51.986;5.842;2024-03-06T05:34:38;23.55;;;10.48;;
46765;SDS011;32527;51.986;5.842;2024-03-06T05:37:04;14.80;;;10.85;;
46765;SDS011;32527;51.986;5.842;2024-03-06T05:39:31;31.73;;;13.05;;
46765;SDS011;32527;51.986;5.842;2024-03-06T05:42:00;28.88;;;12.43;;
46765;SDS011;32527;51.986;5.842;2024-03-06T05:44:33;18.25;;;13.88;;
46765;SDS011;32527;51.986;5.842;2024-03-06T05:46:59;29.02;;;13.68;;
46765;SDS011;32527;51.986;5.842;2024-03-06T05:49:26;19.63;;;12.85;;
46765;SDS011;32527;51.986;5.842;2024-03-06T05:51:53;26.20;;;15.65;;
46765;SDS011;32527;51.986;5.842;2024-03-06T05:54:22;24.02;;;13.45;;
46765;SDS011;32527;51.986;5.842;2024-03-06T05:56:49;18.38;;;11.38;;
46765;SDS011;32527;51.986;5.842;2024-03-06T05:59:16;24.35;;;12.93;;
46765;SDS011;32527;51.986;5.842;2024-03-06T06:01:42;26.98;;;12.07;;
46765;SDS011;32527;51.986;5.842;2024-03-06T06:04:09;22.00;;;13.73;;
46765;SDS011;32527;51.986;5.842;2024-03-06T06:06:35;21.63;;;12.73;;
46765;SDS011;32527;51.986;5.842;2024-03-06T06:09:01;25.23;;;13.18;;
46765;SDS011;32527;51.986;5.842;2024-03-06T06:11:31;14.95;;;10.82;;
46765;SDS011;32527;51.986;5.842;2024-03-06T06:14:00;33.83;;;14.88;;
46765;SDS011;32527;51.986;5.842;2024-03-06T06:16:26;24.98;;;13.57;;
46765;SDS011;32527;51.986;5.842;2024-03-06T06:18:52;23.65;;;12.20;;
46765;SDS011;32527;51.986;5.842;2024-03-06T06:21:18;29.73;;;14.60;;
46765;SDS011;32527;51.986;5.842;2024-03-06T06:23:44;18.33;;;12.65;;
46765;SDS011;32527;51.986;5.842;2024-03-06T06:26:11;23.42;;;14.75;;
46765;SDS011;32527;51.986;5.842;2024-03-06T06:28:37;23.10;;;11.00;;
46765;SDS011;32527;51.986;5.842;2024-03-06T06:31:03;20.27;;;12.32;;
46765;SDS011;32527;51.986;5.842;2024-03-06T06:33:30;25.70;;;16.52;;
46765;SDS011;32527;51.986;5.842;2024-03-06T06:35:56;25.48;;;15.20;;
46765;SDS011;32527;51.986;5.842;2024-03-06T06:38:22;20.17;;;12.27;;
46765;SDS011;32527;51.986;5.842;2024-03-06T06:40:48;27.42;;;13.40;;
46765;SDS011;32527;51.986;5.842;2024-03-06T06:43:14;24.35;;;14.95;;
46765;SDS011;32527;51.986;5.842;2024-03-06T06:45:40;23.45;;;14.05;;
46765;SDS011;32527;51.986;5.842;2024-03-06T06:48:06;27.45;;;16.65;;
46765;SDS011;32527;51.986;5.842;2024-03-06T06:50:34;31.95;;;18.35;;
46765;SDS011;32527;51.986;5.842;2024-03-06T06:53:00;30.83;;;15.23;;
46765;SDS011;32527;51.986;5.842;2024-03-06T06:55:26;30.38;;;16.98;;
46765;SDS011;32527;51.986;5.842;2024-03-06T06:57:52;42.03;;;18.58;;
46765;SDS011;32527;51.986;5.842;2024-03-06T07:00:19;32.97;;;15.70;;
46765;SDS011;32527;51.986;5.842;2024-03-06T07:02:48;35.38;;;14.65;;
46765;SDS011;32527;51.986;5.842;2024-03-06T07:05:14;30.20;;;15.13;;
46765;SDS011;32527;51.986;5.842;2024-03-06T07:07:40;31.30;;;16.67;;
46765;SDS011;32527;51.986;5.842;2024-03-06T07:10:07;34.40;;;17.17;;
46765;SDS011;32527;51.986;5.842;2024-03-06T07:12:33;24.20;;;13.32;;
46765;SDS011;32527;51.986;5.842;2024-03-06T07:14:59;55.38;;;16.05;;
46765;SDS011;32527;51.986;5.842;2024-03-06T07:17:27;27.63;;;15.85;;
46765;SDS011;32527;51.986;5.842;2024-03-06T07:19:53;24.08;;;14.13;;
46765;SDS011;32527;51.986;5.842;2024-03-06T07:22:19;28.92;;;17.55;;
46765;SDS011;32527;51.986;5.842;2024-03-06T07:24:45;36.08;;;16.02;;
46765;SDS011;32527;51.986;5.842;2024-03-06T07:27:11;43.85;;;16.58;;
46765;SDS011;32527;51.986;5.842;2024-03-06T07:29:38;34.53;;;15.25;;
46765;SDS011;32527;51.986;5.842;2024-03-06T07:32:04;19.70;;;13.35;;
46765;SDS011;32527;51.986;5.842;2024-03-06T07:34:30;31.50;;;14.20;;
46765;SDS011;32527;51.986;5.842;2024-03-06T07:36:57;52.35;;;13.13;;
46765;SDS011;32527;51.986;5.842;2024-03-06T07:39:26;34.50;;;13.45;;
46765;SDS011;32527;51.986;5.842;2024-03-06T07:41:53;30.77;;;14.70;;
46765;SDS011;32527;51.986;5.842;2024-03-06T07:44:19;29.95;;;15.18;;
46765;SDS011;32527;51.986;5.842;2024-03-06T07:46:45;21.38;;;12.60;;
46765;SDS011;32527;51.986;5.842;2024-03-06T07:49:11;31.05;;;13.70;;
46765;SDS011;32527;51.986;5.842;2024-03-06T07:51:37;20.83;;;12.48;;
46765;SDS011;32527;51.986;5.842;2024-03-06T07:54:11;21.23;;;12.27;;
46765;SDS011;32527;51.986;5.842;2024-03-06T07:56:37;29.92;;;12.05;;
46765;SDS011;32527;51.986;5.842;2024-03-06T07:59:05;22.67;;;13.68;;
46765;SDS011;32527;51.986;5.842;2024-03-06T08:01:32;20.10;;;14.18;;
46765;SDS011;32527;51.986;5.842;2024-03-06T08:03:58;41.65;;;12.80;;
46765;SDS011;32527;51.986;5.842;2024-03-06T08:06:24;31.40;;;12.15;;
46765;SDS011;32527;51.986;5.842;2024-03-06T08:08:51;44.08;;;14.93;;
46765;SDS011;32527;51.986;5.842;2024-03-06T08:11:17;20.38;;;14.63;;
46765;SDS011;32527;51.986;5.842;2024-03-06T08:13:46;24.25;;;11.98;;
46765;SDS011;32527;51.986;5.842;2024-03-06T08:16:12;27.80;;;15.55;;
46765;SDS011;32527;51.986;5.842;2024-03-06T08:18:38;24.13;;;13.70;;
46765;SDS011;32527;51.986;5.842;2024-03-06T08:21:04;41.58;;;15.75;;
46765;SDS011;32527;51.986;5.842;2024-03-06T08:23:31;26.45;;;14.10;;
46765;SDS011;32527;51.986;5.842;2024-03-06T08:25:58;24.27;;;14.45;;
46765;SDS011;32527;51.986;5.842;2024-03-06T08:28:25;44.38;;;16.35;;
46765;SDS011;32527;51.986;5.842;2024-03-06T08:30:52;22.40;;;12.85;;
46765;SDS011;32527;51.986;5.842;2024-03-06T08:33:18;26.67;;;14.13;;
46765;SDS011;32527;51.986;5.842;2024-03-06T08:35:46;32.15;;;16.70;;
46765;SDS011;32527;51.986;5.842;2024-03-06T08:38:13;27.98;;;14.60;;
46765;SDS011;32527;51.986;5.842;2024-03-06T08:40:39;33.97;;;16.90;;
46765;SDS011;32527;51.986;5.842;2024-03-06T08:43:13;30.08;;;15.50;;
46765;SDS011;32527;51.986;5.842;2024-03-06T08:45:40;26.77;;;16.13;;
46765;SDS011;32527;51.986;5.842;2024-03-06T08:48:07;25.42;;;14.52;;
46765;SDS011;32527;51.986;5.842;2024-03-06T08:50:33;34.38;;;15.50;;
46765;SDS011;32527;51.986;5.842;2024-03-06T08:52:59;33.42;;;14.82;;
46765;SDS011;32527;51.986;5.842;2024-03-06T08:55:27;62.42;;;16.40;;
46765;SDS011;32527;51.986;5.842;2024-03-06T08:57:53;38.72;;;16.15;;
46765;SDS011;32527;51.986;5.842;2024-03-06T09:00:19;27.38;;;13.52;;
46765;SDS011;32527;51.986;5.842;2024-03-06T09:02:45;46.83;;;18.77;;
46765;SDS011;32527;51.986;5.842;2024-03-06T09:05:24;43.38;;;16.73;;
46765;SDS011;32527;51.986;5.842;2024-03-06T09:08:45;34.35;;;15.43;;
46765;SDS011;32527;51.986;5.842;2024-03-06T09:12:13;29.27;;;15.80;;
46765;SDS011;32527;51.986;5.842;2024-03-06T09:15:35;30.63;;;14.90;;
46765;SDS011;32527;51.986;5.842;2024-03-06T09:19:06;38.88;;;16.40;;
46765;SDS011;32527;51.986;5.842;2024-03-06T09:22:02;38.58;;;14.65;;
46765;SDS011;32527;51.986;5.842;2024-03-06T09:24:33;34.67;;;14.65;;
46765;SDS011;32527;51.986;5.842;2024-03-06T09:27:09;31.33;;;14.73;;
46765;SDS011;32527;51.986;5.842;2024-03-06T09:29:35;38.38;;;13.98;;
46765;SDS011;32527;51.986;5.842;2024-03-06T09:32:01;32.97;;;15.43;;
46765;SDS011;32527;51.986;5.842;2024-03-06T09:34:27;48.67;;;16.25;;
46765;SDS011;32527;51.986;5.842;2024-03-06T09:36:53;37.28;;;17.25;;
46765;SDS011;32527;51.986;5.842;2024-03-06T09:39:19;31.48;;;13.65;;
46765;SDS011;32527;51.986;5.842;2024-03-06T09:41:47;30.35;;;15.98;;
46765;SDS011;32527;51.986;5.842;2024-03-06T09:44:14;37.15;;;15.75;;
46765;SDS011;32527;51.986;5.842;2024-03-06T09:46:44;31.83;;;13.23;;
46765;SDS011;32527;51.986;5.842;2024-03-06T09:49:11;55.20;;;15.95;;
46765;SDS011;32527;51.986;5.842;2024-03-06T09:51:41;28.77;;;14.10;;
46765;SDS011;32527;51.986;5.842;2024-03-06T09:54:10;29.88;;;14.32;;
46765;SDS011;32527;51.986;5.842;2024-03-06T09:56:37;33.33;;;14.88;;
46765;SDS011;32527;51.986;5.842;2024-03-06T09:59:03;36.13;;;15.20;;
46765;SDS011;32527;51.986;5.842;2024-03-06T10:01:29;35.28;;;16.48;;
46765;SDS011;32527;51.986;5.842;2024-03-06T10:03:57;38.33;;;16.58;;
46765;SDS011;32527;51.986;5.842;2024-03-06T10:06:23;35.10;;;16.83;;
46765;SDS011;32527;51.986;5.842;2024-03-06T10:08:51;36.92;;;17.13;;
46765;SDS011;32527;51.986;5.842;2024-03-06T10:11:17;41.95;;;16.63;;
46765;SDS011;32527;51.986;5.842;2024-03-06T10:13:52;40.67;;;17.05;;
46765;SDS011;32527;51.986;5.842;2024-03-06T10:16:18;40.28;;;17.48;;
46765;SDS011;32527;51.986;5.842;2024-03-06T10:18:44;45.30;;;17.95;;
46765;SDS011;32527;51.986;5.842;2024-03-06T10:21:10;31.48;;;15.75;;
46765;SDS011;32527;51.986;5.842;2024-03-06T10:23:37;36.20;;;15.73;;
46765;SDS011;32527;51.986;5.842;2024-03-06T10:26:03;40.70;;;18.83;;
46765;SDS011;32527;51.986;5.842;2024-03-06T10:28:33;52.40;;;17.75;;
46765;SDS011;32527;51.986;5.842;2024-03-06T10:31:03;28.65;;;15.55;;
46765;SDS011;32527;51.986;5.842;2024-03-06T10:33:31;45.17;;;17.33;;
46765;SDS011;32527;51.986;5.842;2024-03-06T10:35:58;37.55;;;16.77;;
46765;SDS011;32527;51.986;5.842;2024-03-06T10:38:24;36.97;;;18.33;;
46765;SDS011;32527;51.986;5.842;2024-03-06T10:40:56;33.20;;;16.15;;
46765;SDS011;32527;51.986;5.842;2024-03-06T10:43:22;37.72;;;16.20;;
46765;SDS011;32527;51.986;5.842;2024-03-06T10:48:16;38.63;;;18.05;;
46765;SDS011;32527;51.986;5.842;2024-03-06T10:50:43;36.58;;;16.13;;
46765;SDS011;32527;51.986;5.842;2024-03-06T10:53:16;43.10;;;18.33;;
46765;SDS011;32527;51.986;5.842;2024-03-06T10:55:43;33.88;;;14.70;;
46765;SDS011;32527;51.986;5.842;2024-03-06T10:58:09;37.60;;;16.30;;
46765;SDS011;32527;51.986;5.842;2024-03-06T11:00:45;34.17;;;17.30;;
46765;SDS011;32527;51.986;5.842;2024-03-06T11:03:12;36.28;;;17.77;;
46765;SDS011;32527;51.986;5.842;2024-03-06T11:05:39;32.50;;;17.77;;
46765;SDS011;32527;51.986;5.842;2024-03-06T11:08:09;36.70;;;15.43;;
46765;SDS011;32527;51.986;5.842;2024-03-06T11:10:39;34.78;;;14.98;;
46765;SDS011;32527;51.986;5.842;2024-03-06T11:13:24;37.50;;;16.70;;
46765;SDS011;32527;51.986;5.842;2024-03-06T11:15:56;32.03;;;14.80;;
46765;SDS011;32527;51.986;5.842;2024-03-06T11:20:59;34.85;;;14.75;;
46765;SDS011;32527;51.986;5.842;2024-03-06T11:23:25;42.78;;;17.27;;
46765;SDS011;32527;51.986;5.842;2024-03-06T11:28:21;38.42;;;16.00;;
46765;SDS011;32527;51.986;5.842;2024-03-06T11:31:10;39.15;;;17.05;;
46765;SDS011;32527;51.986;5.842;2024-03-06T11:33:44;35.88;;;16.77;;
46765;SDS011;32527;51.986;5.842;2024-03-06T11:36:33;27.45;;;13.43;;
46765;SDS011;32527;51.986;5.842;2024-03-06T11:39:08;25.95;;;13.55;;
46765;SDS011;32527;51.986;5.842;2024-03-06T11:44:12;58.38;;;16.65;;
46765;SDS011;32527;51.986;5.842;2024-03-06T11:46:45;29.75;;;14.57;;
46765;SDS011;32527;51.986;5.842;2024-03-06T11:49:16;29.98;;;14.93;;
46765;SDS011;32527;51.986;5.842;2024-03-06T11:51:45;32.35;;;13.15;;
46765;SDS011;32527;51.986;5.842;2024-03-06T11:54:11;34.97;;;14.82;;
46765;SDS011;32527;51.986;5.842;2024-03-06T11:56:39;26.35;;;14.00;;
46765;SDS011;32527;51.986;5.842;2024-03-06T11:59:05;34.13;;;14.88;;
46765;SDS011;32527;51.986;5.842;2024-03-06T12:01:34;38.30;;;15.70;;
46765;SDS011;32527;51.986;5.842;2024-03-06T12:04:01;28.73;;;14.18;;
46765;SDS011;32527;51.986;5.842;2024-03-06T12:06:29;32.55;;;15.95;;
46765;SDS011;32527;51.986;5.842;2024-03-06T12:08:55;32.17;;;14.10;;
46765;SDS011;32527;51.986;5.842;2024-03-06T12:11:21;35.45;;;13.77;;
46765;SDS011;32527;51.986;5.842;2024-03-06T12:13:48;27.98;;;13.57;;
46765;SDS011;32527;51.986;5.842;2024-03-06T12:16:14;30.75;;;14.18;;
46765;SDS011;32527;51.986;5.842;2024-03-06T12:18:41;35.05;;;15.15;;
46765;SDS011;32527;51.986;5.842;2024-03-06T12:21:06;37.75;;;14.35;;
46765;SDS011;32527;51.986;5.842;2024-03-06T12:23:33;26.27;;;13.63;;
46765;SDS011;32527;51.986;5.842;2024-03-06T12:26:17;38.60;;;15.60;;
46765;SDS011;32527;51.986;5.842;2024-03-06T12:28:47;37.42;;;16.75;;
46765;SDS011;32527;51.986;5.842;2024-03-06T12:31:13;26.50;;;13.02;;
46765;SDS011;32527;51.986;5.842;2024-03-06T12:33:40;34.13;;;14.93;;
46765;SDS011;32527;51.986;5.842;2024-03-06T12:36:24;31.58;;;14.55;;
46765;SDS011;32527;51.986;5.842;2024-03-06T12:39:44;28.63;;;15.10;;
46765;SDS011;32527;51.986;5.842;2024-03-06T13:01:29;28.98;;;13.80;;
46765;SDS011;32527;51.986;5.842;2024-03-06T13:30:58;19.30;;;9.30;;
46765;SDS011;32527;51.986;5.842;2024-03-06T13:52:01;11.30;;;5.40;;
46765;SDS011;32527;51.986;5.842;2024-03-06T13:58:44;11.18;;;5.63;;
46765;SDS011;32527;51.986;5.842;2024-03-06T14:01:10;10.57;;;6.10;;
46765;SDS011;32527;51.986;5.842;2024-03-06T14:03:36;13.30;;;7.05;;
46765;SDS011;32527;51.986;5.842;2024-03-06T14:06:04;14.65;;;6.35;;
46765;SDS011;32527;51.986;5.842;2024-03-06T14:08:32;14.18;;;8.27;;
46765;SDS011;32527;51.986;5.842;2024-03-06T14:10:58;13.05;;;7.70;;
46765;SDS011;32527;51.986;5.842;2024-03-06T14:13:24;11.95;;;6.50;;
46765;SDS011;32527;51.986;5.842;2024-03-06T14:15:50;13.80;;;7.05;;
46765;SDS011;32527;51.986;5.842;2024-03-06T14:18:18;11.85;;;6.28;;
46765;SDS011;32527;51.986;5.842;2024-03-06T14:20:44;15.30;;;7.05;;
46765;SDS011;32527;51.986;5.842;2024-03-06T14:23:10;13.82;;;7.07;;
46765;SDS011;32527;51.986;5.842;2024-03-06T14:25:36;9.77;;;6.18;;
46765;SDS011;32527;51.986;5.842;2024-03-06T14:28:03;9.05;;;5.70;;
46765;SDS011;32527;51.986;5.842;2024-03-06T14:30:29;10.65;;;5.55;;
46765;SDS011;32527;51.986;5.842;2024-03-06T14:32:55;10.18;;;5.53;;
46765;SDS011;32527;51.986;5.842;2024-03-06T14:35:21;11.38;;;5.18;;
46765;SDS011;32527;51.986;5.842;2024-03-06T14:37:47;7.15;;;5.15;;
46765;SDS011;32527;51.986;5.842;2024-03-06T14:40:14;14.68;;;6.05;;
46765;SDS011;32527;51.986;5.842;2024-03-06T14:42:40;9.02;;;4.78;;
46765;SDS011;32527;51.986;5.842;2024-03-06T14:45:06;10.30;;;4.40;;
46765;SDS011;32527;51.986;5.842;2024-03-06T14:47:33;9.02;;;4.20;;
46765;SDS011;32527;51.986;5.842;2024-03-06T14:50:01;14.18;;;6.10;;
46765;SDS011;32527;51.986;5.842;2024-03-06T14:52:27;6.75;;;4.50;;
46765;SDS011;32527;51.986;5.842;2024-03-06T14:54:53;8.23;;;4.18;;
46765;SDS011;32527;51.986;5.842;2024-03-06T14:57:19;8.85;;;4.72;;
46765;SDS011;32527;51.986;5.842;2024-03-06T14:59:47;6.50;;;3.72;;
46765;SDS011;32527;51.986;5.842;2024-03-06T15:02:13;10.45;;;4.72;;
46765;SDS011;32527;51.986;5.842;2024-03-06T15:28:57;11.80;;;5.05;;
46765;SDS011;32527;51.986;5.842;2024-03-06T15:31:24;6.72;;;4.28;;
46765;SDS011;32527;51.986;5.842;2024-03-06T15:33:51;8.23;;;4.30;;
46765;SDS011;32527;51.986;5.842;2024-03-06T15:36:20;7.32;;;4.38;;
46765;SDS011;32527;51.986;5.842;2024-03-06T15:38:46;8.63;;;4.97;;
46765;SDS011;32527;51.986;5.842;2024-03-06T15:41:12;7.25;;;4.32;;
46765;SDS011;32527;51.986;5.842;2024-03-06T15:43:38;10.35;;;5.25;;
46765;SDS011;32527;51.986;5.842;2024-03-06T15:46:04;11.70;;;5.28;;
46765;SDS011;32527;51.986;5.842;2024-03-06T15:48:31;9.85;;;5.35;;
46765;SDS011;32527;51.986;5.842;2024-03-06T15:50:58;9.93;;;4.38;;
46765;SDS011;32527;51.986;5.842;2024-03-06T15:53:24;10.95;;;5.60;;
46765;SDS011;32527;51.986;5.842;2024-03-06T15:55:54;11.27;;;6.18;;
46765;SDS011;32527;51.986;5.842;2024-03-06T15:58:21;10.10;;;5.95;;
46765;SDS011;32527;51.986;5.842;2024-03-06T16:00:47;8.50;;;5.78;;
46765;SDS011;32527;51.986;5.842;2024-03-06T16:03:13;9.50;;;5.43;;
46765;SDS011;32527;51.986;5.842;2024-03-06T16:05:39;11.85;;;6.18;;
46765;SDS011;32527;51.986;5.842;2024-03-06T16:08:05;10.32;;;5.88;;
46765;SDS011;32527;51.986;5.842;2024-03-06T16:10:31;11.20;;;7.65;;
46765;SDS011;32527;51.986;5.842;2024-03-06T16:12:59;15.88;;;7.80;;